Time;durP1;ratioP1;P1;durP2;ratioP2;P2;SDS_P1;SDS_P2;PMS_P1;PMS_P2;Temp;Humidity;BMP_temperature;BMP_pressure;BME280_temperature;BME280_humidity;BME280_pressure;Samples;Min_cycle;Max_cycle;Signal;HPM_P1;HPM_P2
2021/07/21 00:01:21;;;;;;;0.73;0.63;;;24.30;57.50;;;;;;6218659;28;20026;-67
2021/07/21 00:04:22;;;;;;;0.52;0.52;;;24.30;57.50;;;;;;6218342;28;20034;-67
2021/07/21 00:07:22;;;;;;;0.77;0.75;;;24.30;57.50;;;;;;6218012;28;20670;-67
2021/07/21 00:10:26;;;;;;;1.13;1.00;;;24.30;57.60;;;;;;6218383;28;20041;-67
2021/07/21 00:13:27;;;;;;;1.00;0.90;;;24.30;57.50;;;;;;6204450;28;20037;-68
2021/07/21 00:16:35;;;;;;;0.70;0.60;;;24.30;57.60;;;;;;6173232;28;20453;-68
2021/07/21 00:22:55;;;;;;;0.77;0.70;;;24.20;57.50;;;;;;6206321;28;20029;-67
2021/07/21 00:25:56;;;;;;;0.90;0.80;;;24.30;57.60;;;;;;6233679;28;20470;-67
2021/07/21 00:28:57;;;;;;;0.75;0.70;;;24.30;57.60;;;;;;6217611;28;20088;-68
2021/07/21 00:31:57;;;;;;;0.93;0.90;;;24.30;57.60;;;;;;6217505;28;20449;-68
2021/07/21 00:34:58;;;;;;;0.98;0.85;;;24.20;57.50;;;;;;6217963;28;20101;-67
2021/07/21 00:37:58;;;;;;;0.93;0.70;;;24.30;57.70;;;;;;6218095;28;20065;-68
2021/07/21 00:40:59;;;;;;;1.27;1.00;;;24.30;57.60;;;;;;6217687;28;20440;-68
2021/07/21 00:43:59;;;;;;;1.00;0.80;;;24.30;57.70;;;;;;6217517;28;20495;-67
2021/07/21 00:47:00;;;;;;;0.80;0.65;;;24.30;57.70;;;;;;6217371;28;20449;-67
2021/07/21 00:50:01;;;;;;;0.73;0.73;;;24.30;57.70;;;;;;6217538;28;20030;-67
2021/07/21 00:53:02;;;;;;;0.40;0.40;;;24.30;57.70;;;;;;6217634;28;20497;-67
2021/07/21 00:56:03;;;;;;;0.82;0.75;;;24.30;57.70;;;;;;6217689;28;20628;-67
2021/07/21 00:59:04;;;;;;;0.60;0.60;;;24.30;57.70;;;;;;6217241;28;20062;-67
2021/07/21 01:02:05;;;;;;;0.75;0.75;;;24.30;57.70;;;;;;6217035;28;20030;-67
2021/07/21 01:05:14;;;;;;;1.00;0.70;;;24.30;57.70;;;;;;6216674;28;20596;-68
2021/07/21 01:08:15;;;;;;;0.80;0.80;;;24.30;57.70;;;;;;6216855;28;20053;-67
2021/07/21 01:11:33;;;;;;;0.80;0.70;;;24.30;57.70;;;;;;6206546;28;20037;-68
2021/07/21 01:14:46;;;;;;;0.63;0.60;;;24.30;57.70;;;;;;6206958;28;20111;-67
2021/07/21 01:18:03;;;;;;;0.70;0.60;;;24.30;57.80;;;;;;6215321;28;20030;-67
2021/07/21 01:21:28;;;;;;;1.08;0.80;;;24.20;57.60;;;;;;6199186;28;20034;-67
2021/07/21 01:24:45;;;;;;;0.82;0.80;;;24.30;57.80;;;;;;6216168;28;20308;-67
2021/07/21 01:27:51;;;;;;;0.88;0.60;;;24.20;57.70;;;;;;6216553;28;20034;-67
2021/07/21 01:30:53;;;;;;;0.80;0.80;;;24.30;57.80;;;;;;6216889;28;20450;-68
2021/07/21 01:33:57;;;;;;;0.70;0.70;;;24.30;57.80;;;;;;6216427;28;20571;-67
2021/07/21 01:36:58;;;;;;;1.13;0.90;;;24.30;57.80;;;;;;6216765;28;20036;-67
2021/07/21 01:40:04;;;;;;;0.60;0.60;;;24.30;57.80;;;;;;6216379;28;20034;-67
2021/07/21 01:43:07;;;;;;;0.57;0.57;;;24.30;57.80;;;;;;6216728;28;20493;-67
2021/07/21 01:46:08;;;;;;;3.28;0.80;;;24.30;57.80;;;;;;6215968;28;20072;-67
2021/07/21 01:49:11;;;;;;;0.82;0.73;;;24.30;57.80;;;;;;6216257;28;20500;-67
2021/07/21 01:52:15;;;;;;;0.80;0.80;;;24.30;57.80;;;;;;6231535;28;20021;-68
2021/07/21 01:55:20;;;;;;;1.27;0.90;;;24.30;57.80;;;;;;6216185;28;20022;-67
2021/07/21 01:58:23;;;;;;;;;;;24.30;57.80;;;;;;6216923;28;20042;-67
2021/07/21 02:01:29;;;;;;;0.68;0.68;;;24.30;57.80;;;;;;6216038;28;19980;-68
2021/07/21 02:04:30;;;;;;;0.70;0.70;;;24.30;57.80;;;;;;6216049;28;20497;-68
2021/07/21 02:07:32;;;;;;;1.00;0.70;;;24.30;57.90;;;;;;6216103;28;20029;-67
2021/07/21 02:10:33;;;;;;;0.90;0.80;;;24.30;57.90;;;;;;6216363;28;20143;-68
2021/07/21 02:13:36;;;;;;;1.02;0.70;;;24.20;57.80;;;;;;6200742;28;20098;-67
2021/07/21 02:16:37;;;;;;;1.25;0.90;;;24.30;57.90;;;;;;6214312;28;20102;-67
2021/07/21 02:19:39;;;;;;;0.75;0.63;;;24.30;57.90;;;;;;6207431;28;20088;-67
2021/07/21 02:22:42;;;;;;;2.65;1.00;;;24.30;57.90;;;;;;6220733;28;20030;-68
2021/07/21 02:25:43;;;;;;;0.80;0.75;;;24.30;57.90;;;;;;6220207;28;20041;-68
2021/07/21 02:28:45;;;;;;;0.60;0.60;;;24.30;58.00;;;;;;6220565;28;20100;-67
2021/07/21 02:32:07;;;;;;;0.93;0.80;;;24.30;57.90;;;;;;6220431;28;20038;-68
2021/07/21 02:35:08;;;;;;;1.30;0.82;;;24.30;57.90;;;;;;6220282;28;20499;-68
2021/07/21 02:38:09;;;;;;;0.65;0.65;;;24.30;57.90;;;;;;6220564;28;20026;-67
2021/07/21 02:41:10;;;;;;;0.85;0.80;;;24.30;57.90;;;;;;6220475;28;20476;-67
2021/07/21 02:44:11;;;;;;;1.15;0.80;;;24.30;57.90;;;;;;6220598;28;20104;-67
2021/07/21 02:47:12;;;;;;;1.10;0.80;;;24.30;57.90;;;;;;6219062;28;20052;-67
2021/07/21 02:50:16;;;;;;;0.80;0.80;;;24.30;57.90;;;;;;6220246;28;20057;-67
2021/07/21 02:53:22;;;;;;;1.10;0.93;;;24.30;57.90;;;;;;6220204;28;20034;-67
2021/07/21 02:56:25;;;;;;;1.48;1.15;;;24.30;57.90;;;;;;6219688;28;20470;-67
2021/07/21 02:59:37;;;;;;;1.00;0.90;;;24.30;58.00;;;;;;6220040;28;20516;-67
2021/07/21 03:02:38;;;;;;;1.55;1.10;;;24.30;57.90;;;;;;6219258;28;20033;-67
2021/07/21 03:05:40;;;;;;;1.00;0.70;;;24.30;58.00;;;;;;6211983;28;20034;-67
2021/07/21 03:08:42;;;;;;;1.83;1.08;;;24.30;58.00;;;;;;6195371;28;20418;-68
2021/07/21 03:11:46;;;;;;;3.38;1.20;;;24.30;58.00;;;;;;6209676;28;20103;-67
2021/07/21 03:14:48;;;;;;;0.93;0.85;;;24.30;58.00;;;;;;6184469;28;20023;-68
2021/07/21 03:17:49;;;;;;;1.40;1.20;;;24.30;58.00;;;;;;6212436;28;20030;-68
2021/07/21 03:20:53;;;;;;;0.98;0.88;;;24.30;58.00;;;;;;6200606;28;20080;-68
2021/07/21 03:23:54;;;;;;;0.90;0.75;;;24.30;58.00;;;;;;6220392;28;20080;-67
2021/07/21 03:26:56;;;;;;;0.93;0.82;;;24.30;58.00;;;;;;6219173;28;20511;-68
2021/07/21 03:29:57;;;;;;;1.65;0.90;;;24.30;58.00;;;;;;6219240;28;20058;-68
2021/07/21 03:33:00;;;;;;;1.08;0.90;;;24.30;58.00;;;;;;6218894;28;20631;-67
2021/07/21 03:36:02;;;;;;;1.58;1.05;;;24.30;58.00;;;;;;6218431;28;20428;-67
2021/07/21 03:39:05;;;;;;;1.20;1.00;;;24.30;58.00;;;;;;6219103;28;20623;-67
2021/07/21 03:42:06;;;;;;;1.10;1.00;;;24.30;58.00;;;;;;6219565;28;20386;-68
2021/07/21 03:45:10;;;;;;;0.80;0.80;;;24.30;58.00;;;;;;6219118;28;20029;-67
2021/07/21 03:48:11;;;;;;;2.47;1.20;;;24.30;58.00;;;;;;6218776;28;20025;-68
2021/07/21 03:51:13;;;;;;;1.52;1.00;;;24.30;58.00;;;;;;6218954;28;20075;-68
2021/07/21 03:54:15;;;;;;;1.00;0.90;;;24.30;58.10;;;;;;6218633;28;20028;-67
2021/07/21 03:57:20;;;;;;;2.50;1.17;;;24.20;58.00;;;;;;6218700;28;20041;-67
2021/07/21 04:00:45;;;;;;;1.40;1.05;;;24.30;58.10;;;;;;6218749;28;20046;-68
2021/07/21 04:03:48;;;;;;;1.17;0.98;;;24.20;58.00;;;;;;6218418;28;20061;-67
2021/07/21 04:06:50;;;;;;;1.10;1.00;;;24.30;58.00;;;;;;6218384;28;20477;-68
2021/07/21 04:09:52;;;;;;;0.98;0.90;;;24.30;58.10;;;;;;6218252;28;20496;-68
2021/07/21 04:12:54;;;;;;;0.93;0.80;;;24.30;58.00;;;;;;6213839;28;20093;-67
2021/07/21 04:15:55;;;;;;;1.30;1.00;;;24.30;58.10;;;;;;6170015;28;20109;-68
2021/07/21 04:18:56;;;;;;;1.40;1.10;;;24.30;58.10;;;;;;6202270;28;20037;-68
2021/07/21 04:21:56;;;;;;;1.75;0.90;;;24.30;58.10;;;;;;6198791;28;20057;-68
2021/07/21 04:24:58;;;;;;;1.63;1.10;;;24.30;58.10;;;;;;6217763;28;20069;-68
2021/07/21 04:27:59;;;;;;;1.20;1.05;;;24.20;58.00;;;;;;6217631;28;20030;-67
2021/07/21 04:31:00;;;;;;;1.52;1.13;;;24.20;58.00;;;;;;6218266;28;20061;-67
2021/07/21 04:34:03;;;;;;;1.38;1.10;;;24.20;58.00;;;;;;6217682;28;20032;-67
2021/07/21 04:37:04;;;;;;;1.20;1.10;;;24.20;58.00;;;;;;6217767;28;20030;-67
2021/07/21 04:40:06;;;;;;;1.45;1.10;;;24.20;58.10;;;;;;6217589;28;20037;-68
2021/07/21 04:43:08;;;;;;;1.10;1.00;;;24.30;58.20;;;;;;6217271;28;20109;-67
2021/07/21 04:46:09;;;;;;;1.40;1.17;;;24.30;58.10;;;;;;6217414;28;20049;-68
2021/07/21 04:49:14;;;;;;;1.60;1.27;;;24.30;58.10;;;;;;6217514;28;20026;-68
2021/07/21 04:52:16;;;;;;;1.48;1.38;;;24.30;58.10;;;;;;6217074;28;20036;-68
2021/07/21 04:55:17;;;;;;;1.08;0.82;;;24.30;58.20;;;;;;6217416;28;20033;-67
2021/07/21 04:58:17;;;;;;;1.50;1.20;;;24.30;58.10;;;;;;6207760;28;20031;-68
2021/07/21 05:01:18;;;;;;;1.50;1.20;;;24.20;58.00;;;;;;6192512;28;20018;-68
2021/07/21 05:04:19;;;;;;;1.20;1.10;;;24.20;58.00;;;;;;6192648;28;20030;-67
2021/07/21 05:07:19;;;;;;;1.50;1.23;;;24.30;58.10;;;;;;6193081;28;20026;-67
2021/07/21 05:10:20;;;;;;;1.08;0.98;;;24.30;58.10;;;;;;6217410;28;20033;-67
2021/07/21 05:13:21;;;;;;;1.65;1.10;;;24.30;58.10;;;;;;6205433;28;20054;-68
2021/07/21 05:16:22;;;;;;;1.38;1.10;;;24.30;58.10;;;;;;6169367;28;20030;-67
2021/07/21 05:19:22;;;;;;;1.50;1.27;;;24.30;58.00;;;;;;6183652;28;20453;-68
2021/07/21 05:22:23;;;;;;;2.80;1.42;;;24.30;58.00;;;;;;6192448;28;20026;-68
2021/07/21 05:25:23;;;;;;;1.35;1.25;;;24.30;58.00;;;;;;6214681;28;20116;-67
2021/07/21 05:28:25;;;;;;;1.60;1.40;;;24.30;58.00;;;;;;6209479;28;20562;-67
2021/07/21 05:31:26;;;;;;;1.63;1.10;;;24.30;58.00;;;;;;6205232;28;20037;-68
2021/07/21 05:34:27;;;;;;;6.10;2.92;;;24.30;57.50;;;;;;6227894;28;20064;-67
2021/07/21 05:37:28;;;;;;;6.72;3.40;;;24.30;56.50;;;;;;6214856;28;20040;-68
2021/07/21 05:40:28;;;;;;;7.07;3.90;;;24.30;55.60;;;;;;6226173;28;20033;-68
2021/07/21 05:43:29;;;;;;;8.30;4.53;;;24.30;55.20;;;;;;6240290;28;20057;-67
2021/07/21 05:46:30;;;;;;;6.60;4.85;;;24.30;55.30;;;;;;6228219;28;20401;-68
2021/07/21 05:49:30;;;;;;;6.85;4.43;;;24.30;55.10;;;;;;6227102;28;20222;-67
2021/07/21 05:52:31;;;;;;;9.02;4.80;;;24.30;54.90;;;;;;6216254;28;20042;-68
2021/07/21 05:55:32;;;;;;;9.65;5.18;;;24.20;54.70;;;;;;6239157;28;20307;-67
2021/07/21 05:58:32;;;;;;;15.07;5.30;;;24.20;54.60;;;;;;6246172;28;20099;-68
2021/07/21 06:01:33;;;;;;;6.40;4.15;;;24.30;55.50;;;;;;6221809;28;20315;-68
2021/07/21 06:04:33;;;;;;;6.50;4.10;;;24.30;56.30;;;;;;6211791;28;20057;-67
2021/07/21 06:07:34;;;;;;;5.38;4.07;;;24.30;56.40;;;;;;6225862;28;20025;-68
2021/07/21 06:10:34;;;;;;;4.40;3.50;;;24.30;56.50;;;;;;6249760;28;20030;-68
2021/07/21 06:13:35;;;;;;;5.57;3.92;;;24.30;56.50;;;;;;6241099;28;20022;-67
2021/07/21 06:16:36;;;;;;;6.80;3.85;;;24.30;56.70;;;;;;6247205;28;20071;-67
2021/07/21 06:19:36;;;;;;;6.80;3.67;;;24.30;56.80;;;;;;6237564;28;20041;-68
2021/07/21 06:22:42;;;;;;;5.18;3.33;;;24.30;56.80;;;;;;6249417;28;20030;-68
2021/07/21 06:25:42;;;;;;;4.53;3.53;;;24.30;56.90;;;;;;6248435;28;20025;-67
2021/07/21 06:28:43;;;;;;;7.55;4.13;;;24.30;56.90;;;;;;6248657;28;20404;-67
2021/07/21 06:31:44;;;;;;;5.47;3.50;;;24.30;57.00;;;;;;6248345;28;20018;-68
2021/07/21 06:34:44;;;;;;;6.22;4.10;;;24.30;57.00;;;;;;6248464;28;20562;-68
2021/07/21 06:37:45;;;;;;;4.35;3.15;;;24.30;57.00;;;;;;6248928;28;20057;-67
2021/07/21 06:40:46;;;;;;;4.00;3.10;;;24.30;57.00;;;;;;6248400;28;20026;-67
2021/07/21 06:43:49;;;;;;;5.60;3.47;;;24.30;57.00;;;;;;6248815;28;20025;-67
2021/07/21 06:46:49;;;;;;;4.15;3.13;;;24.30;57.00;;;;;;6248151;28;20082;-68
2021/07/21 06:49:51;;;;;;;4.55;3.30;;;24.30;57.00;;;;;;6248462;28;20029;-68
2021/07/21 06:52:51;;;;;;;6.15;3.70;;;24.30;57.10;;;;;;6248207;28;20022;-67
2021/07/21 06:55:52;;;;;;;3.85;3.20;;;24.30;57.10;;;;;;6247740;28;20053;-67
2021/07/21 06:58:53;;;;;;;4.28;3.33;;;24.30;57.10;;;;;;6248036;28;20044;-68
2021/07/21 07:01:54;;;;;;;5.07;3.30;;;24.30;57.10;;;;;;6247797;28;20057;-68
2021/07/21 07:04:54;;;;;;;3.72;3.08;;;24.30;57.10;;;;;;6246231;28;20508;-68
2021/07/21 07:07:55;;;;;;;4.68;3.22;;;24.30;57.20;;;;;;6223247;28;20022;-67
2021/07/21 07:10:56;;;;;;;4.57;3.60;;;24.30;57.20;;;;;;6229919;28;20075;-67
2021/07/21 07:13:56;;;;;;;5.28;3.55;;;24.30;57.20;;;;;;6236775;28;20026;-68
2021/07/21 07:16:57;;;;;;;4.03;3.30;;;24.30;57.20;;;;;;6237099;28;20523;-68
2021/07/21 07:19:57;;;;;;;3.28;2.88;;;24.30;57.20;;;;;;6227668;28;20073;-67
2021/07/21 07:22:58;;;;;;;3.97;2.90;;;24.30;57.20;;;;;;6243592;28;20496;-68
2021/07/21 07:25:58;;;;;;;3.33;3.00;;;24.30;57.20;;;;;;6247004;28;20040;-67
2021/07/21 07:28:59;;;;;;;5.38;3.03;;;24.30;57.20;;;;;;6246966;28;20046;-68
2021/07/21 07:32:01;;;;;;;4.78;2.90;;;24.30;57.30;;;;;;6247078;28;20041;-67
2021/07/21 07:35:01;;;;;;;3.60;3.05;;;24.30;57.30;;;;;;6247199;28;20395;-67
2021/07/21 07:38:03;;;;;;;3.55;2.80;;;24.30;57.30;;;;;;6246946;28;20030;-68
2021/07/21 07:41:04;;;;;;;3.88;3.17;;;24.30;57.30;;;;;;6246789;28;20022;-68
2021/07/21 07:44:06;;;;;;;3.83;3.05;;;24.30;57.30;;;;;;6247200;28;20037;-67
2021/07/21 07:47:07;;;;;;;3.72;2.78;;;24.30;57.30;;;;;;6246773;28;20108;-68
2021/07/21 07:50:10;;;;;;;3.70;3.17;;;24.30;57.30;;;;;;6247001;28;20031;-68
2021/07/21 07:53:10;;;;;;;4.10;3.42;;;24.30;57.30;;;;;;6246590;28;20025;-68
2021/07/21 07:56:11;;;;;;;4.43;3.08;;;24.30;57.30;;;;;;6246895;28;20455;-67
2021/07/21 07:59:12;;;;;;;4.57;2.88;;;24.30;57.40;;;;;;6246579;28;20042;-68
2021/07/21 08:02:12;;;;;;;3.47;2.90;;;24.30;57.40;;;;;;6246592;28;20448;-68
2021/07/21 08:05:13;;;;;;;4.28;3.03;;;24.30;57.50;;;;;;6246550;28;20343;-67
2021/07/21 08:08:14;;;;;;;4.22;2.83;;;24.30;57.50;;;;;;6261895;28;20025;-68
2021/07/21 08:11:16;;;;;;;3.28;2.55;;;24.30;57.50;;;;;;6246342;28;20095;-67
2021/07/21 08:14:18;;;;;;;5.18;2.60;;;24.30;57.50;;;;;;6229280;28;20030;-67
2021/07/21 08:17:19;;;;;;;4.45;2.75;;;24.30;57.50;;;;;;6225736;28;20037;-67
2021/07/21 08:20:20;;;;;;;3.67;2.85;;;24.30;57.50;;;;;;6239742;28;20084;-68
2021/07/21 08:23:20;;;;;;;3.50;2.70;;;24.30;57.50;;;;;;6235363;28;20081;-67
2021/07/21 08:26:21;;;;;;;3.63;2.80;;;24.30;57.50;;;;;;6245953;28;20042;-67
2021/07/21 08:29:21;;;;;;;2.83;2.53;;;24.30;57.50;;;;;;6245529;28;20053;-67
2021/07/21 08:32:22;;;;;;;3.55;2.60;;;24.30;57.50;;;;;;6246129;28;20037;-68
2021/07/21 08:35:28;;;;;;;3.38;2.63;;;24.30;57.60;;;;;;6225301;28;20570;-67
2021/07/21 08:38:28;;;;;;;4.03;2.72;;;24.30;57.60;;;;;;6212184;28;20034;-67
2021/07/21 08:41:29;;;;;;;3.17;2.58;;;24.30;57.60;;;;;;6208169;28;20093;-67
2021/07/21 08:44:29;;;;;;;3.13;2.60;;;24.30;57.60;;;;;;6217832;28;20030;-68
2021/07/21 08:47:30;;;;;;;3.25;2.40;;;24.30;57.60;;;;;;6220860;28;20030;-68
2021/07/21 08:50:31;;;;;;;3.65;2.47;;;24.30;57.60;;;;;;6220086;28;20116;-68
2021/07/21 08:53:32;;;;;;;3.80;2.65;;;24.30;57.70;;;;;;6231207;28;20488;-68
2021/07/21 08:56:32;;;;;;;4.68;2.63;;;24.30;57.70;;;;;;6227770;28;20369;-68
2021/07/21 08:59:34;;;;;;;3.45;2.70;;;24.30;57.70;;;;;;6224232;28;20046;-68
2021/07/21 09:02:36;;;;;;;3.05;2.25;;;24.30;57.80;;;;;;6232149;28;20028;-68
2021/07/21 09:05:37;;;;;;;3.53;2.25;;;24.30;57.80;;;;;;6218802;28;20033;-67
2021/07/21 09:08:38;;;;;;;3.08;2.72;;;24.30;57.80;;;;;;6233063;28;20107;-68
2021/07/21 09:11:40;;;;;;;3.15;2.78;;;24.30;57.80;;;;;;6224251;28;20061;-68
2021/07/21 09:14:41;;;;;;;3.08;2.40;;;24.30;57.90;;;;;;6225717;28;20485;-67
2021/07/21 09:18:04;;;;;;;4.90;2.78;;;24.30;57.90;;;;;;6231827;28;20026;-67
2021/07/21 09:21:09;;;;;;;3.15;2.60;;;24.30;57.90;;;;;;6217803;28;20053;-67
2021/07/21 09:24:19;;;;;;;3.25;2.55;;;24.30;57.90;;;;;;6218231;28;20022;-67
2021/07/21 09:27:26;;;;;;;3.08;2.65;;;24.30;57.90;;;;;;6228146;28;20025;-67
2021/07/21 09:30:32;;;;;;;3.75;2.75;;;24.30;58.00;;;;;;6232569;28;20049;-67
2021/07/21 09:33:34;;;;;;;3.13;2.75;;;24.30;57.90;;;;;;6226909;28;20022;-68
2021/07/21 09:36:35;;;;;;;3.33;2.40;;;24.30;58.00;;;;;;6219542;28;20038;-68
2021/07/21 09:39:40;;;;;;;2.70;2.20;;;24.30;58.00;;;;;;6231203;28;20038;-68
2021/07/21 09:42:41;;;;;;;2.42;2.22;;;24.30;58.00;;;;;;6227596;28;20109;-67
2021/07/21 09:45:43;;;;;;;3.75;2.20;;;24.30;58.00;;;;;;6217973;28;20030;-68
2021/07/21 09:48:46;;;;;;;3.83;2.67;;;24.30;58.00;;;;;;6232356;28;20112;-67
2021/07/21 09:51:47;;;;;;;5.72;2.65;;;24.30;58.00;;;;;;6218921;28;20025;-67
2021/07/21 09:55:10;;;;;;;2.95;2.13;;;24.30;58.00;;;;;;6232498;28;20030;-68
2021/07/21 09:58:23;;;;;;;3.65;2.60;;;24.30;58.00;;;;;;6217493;28;20035;-67
2021/07/21 10:01:30;;;;;;;3.03;2.35;;;24.30;58.00;;;;;;6218468;28;20381;-67
2021/07/21 10:04:33;;;;;;;2.35;2.08;;;24.30;58.00;;;;;;6227603;28;20087;-68
2021/07/21 10:10:41;;;;;;;3.20;2.00;;;24.30;58.00;;;;;;6218675;28;20040;-68
2021/07/21 10:13:41;;;;;;;4.03;2.58;;;24.30;58.00;;;;;;6220837;28;20113;-68
2021/07/21 10:16:51;;;;;;;3.63;2.35;;;24.30;58.00;;;;;;6218398;28;20430;-68
2021/07/21 10:19:52;;;;;;;3.13;2.50;;;24.30;58.00;;;;;;6222513;28;20389;-68
2021/07/21 10:22:52;;;;;;;2.67;2.13;;;24.30;58.00;;;;;;6242385;28;20025;-68
2021/07/21 10:25:53;;;;;;;3.00;2.30;;;24.30;58.00;;;;;;6229027;28;20029;-67
2021/07/21 10:28:58;;;;;;;2.95;2.30;;;24.30;58.00;;;;;;6229272;28;20091;-67
2021/07/21 10:31:58;;;;;;;;;;;24.30;58.00;;;;;;6221030;28;20022;-67
2021/07/21 10:34:59;;;;;;;2.38;2.08;;;24.30;58.00;;;;;;6219220;28;19909;-68
2021/07/21 10:37:59;;;;;;;2.60;2.30;;;24.30;58.30;;;;;;6219815;28;20136;-68
2021/07/21 10:41:00;;;;;;;3.03;2.30;;;24.30;58.20;;;;;;6224541;28;20029;-68
2021/07/21 10:44:01;;;;;;;2.50;2.13;;;24.30;58.20;;;;;;6232428;28;20076;-68
2021/07/21 10:47:24;;;;;;;3.30;2.53;;;24.20;57.10;;;;;;6225725;28;20049;-68
2021/07/21 10:51:05;;;;;;;6.50;2.50;;;24.20;55.90;;;;;;6238296;28;20022;-67
2021/07/21 10:54:40;;;;;;;2.85;2.10;;;24.20;54.90;;;;;;6231577;28;20109;-68
2021/07/21 11:01:00;;;;;;;3.55;2.50;;;24.20;54.60;;;;;;6237982;28;20029;-68
2021/07/21 11:04:02;;;;;;;3.75;2.50;;;24.20;55.00;;;;;;6221587;28;20084;-68
2021/07/21 11:07:03;;;;;;;2.83;2.40;;;24.20;55.10;;;;;;6220861;28;20034;-68
2021/07/21 11:10:04;;;;;;;5.05;2.70;;;24.20;54.20;;;;;;6231729;28;20034;-68
2021/07/21 11:13:06;;;;;;;4.18;2.65;;;24.20;54.00;;;;;;6223422;28;20481;-68
2021/07/21 11:16:40;;;;;;;3.72;2.33;;;24.20;53.50;;;;;;6238187;28;20056;-67
2021/07/21 11:19:48;;;;;;;3.67;2.47;;;24.10;53.90;;;;;;6222197;28;20034;-67
2021/07/21 11:22:49;;;;;;;8.05;2.60;;;24.10;54.40;;;;;;6220653;28;20026;-67
2021/07/21 11:26:28;;;;;;;3.35;2.60;;;24.20;53.30;;;;;;6229500;28;20076;-67
2021/07/21 11:29:33;;;;;;;3.55;2.50;;;24.10;53.80;;;;;;6231366;28;20053;-68
2021/07/21 11:32:34;;;;;;;4.00;2.70;;;24.10;53.80;;;;;;6229209;28;20030;-67
2021/07/21 11:35:40;;;;;;;3.97;2.33;;;24.10;54.20;;;;;;6225361;28;20500;-68
2021/07/21 11:38:53;;;;;;;3.92;2.72;;;24.10;55.00;;;;;;6221105;28;20030;-67
2021/07/21 11:41:54;;;;;;;4.88;3.08;;;24.10;54.30;;;;;;6222572;28;20361;-69
2021/07/21 11:45:09;;;;;;;3.22;2.58;;;24.10;54.90;;;;;;6229790;28;20042;-70
2021/07/21 11:48:10;;;;;;;3.92;2.80;;;24.20;55.00;;;;;;6227100;28;20026;-69
2021/07/21 11:51:10;;;;;;;5.65;2.83;;;24.20;55.00;;;;;;6238756;28;20033;-69
2021/07/21 11:54:11;;;;;;;5.65;3.08;;;24.20;55.10;;;;;;6245693;28;20025;-69
2021/07/21 11:57:12;;;;;;;4.05;2.60;;;24.20;55.10;;;;;;6244975;28;20026;-69
2021/07/21 12:00:13;;;;;;;4.47;2.70;;;24.20;55.20;;;;;;6244898;28;20493;-69
2021/07/21 12:03:14;;;;;;;5.00;2.95;;;24.20;55.30;;;;;;6260195;28;20072;-69
2021/07/21 12:06:27;;;;;;;3.25;2.47;;;24.20;55.40;;;;;;6260342;28;20423;-69
2021/07/21 12:09:28;;;;;;;3.03;2.28;;;24.20;55.50;;;;;;6244945;28;20400;-69
2021/07/21 12:12:29;;;;;;;2.97;2.50;;;24.20;55.60;;;;;;6244384;28;20330;-69
2021/07/21 12:15:29;;;;;;;3.40;2.42;;;24.20;55.60;;;;;;6230142;28;20325;-69
2021/07/21 12:18:30;;;;;;;3.53;2.35;;;24.20;55.70;;;;;;6236401;28;20334;-70
2021/07/21 12:21:33;;;;;;;3.22;2.42;;;24.20;55.90;;;;;;6236096;28;20035;-69
2021/07/21 12:24:43;;;;;;;3.90;2.53;;;24.20;56.00;;;;;;6244105;28;20041;-70
2021/07/21 12:27:46;;;;;;;3.33;2.58;;;24.20;56.00;;;;;;6244506;28;20160;-69
2021/07/21 12:30:56;;;;;;;3.25;2.10;;;24.20;56.10;;;;;;6240608;28;20248;-70
2021/07/21 12:34:18;;;;;;;3.47;2.67;;;24.20;56.10;;;;;;6226739;28;20025;-69
2021/07/21 12:37:21;;;;;;;3.17;2.15;;;24.20;56.10;;;;;;6240339;28;20029;-67
2021/07/21 12:40:26;;;;;;;3.22;2.60;;;24.20;56.20;;;;;;6244200;28;20103;-68
2021/07/21 12:43:27;;;;;;;4.28;2.22;;;24.20;56.20;;;;;;6244072;28;20071;-67
2021/07/21 12:46:27;;;;;;;3.38;2.75;;;24.20;56.30;;;;;;6243821;28;20025;-68
2021/07/21 12:49:28;;;;;;;2.90;2.13;;;24.20;56.30;;;;;;6240631;28;20029;-67
2021/07/21 12:52:37;;;;;;;2.80;2.20;;;24.20;56.40;;;;;;6234329;28;20048;-67
2021/07/21 12:55:40;;;;;;;2.88;2.30;;;24.20;56.50;;;;;;6227778;28;20040;-68
2021/07/21 12:58:40;;;;;;;3.58;2.20;;;24.20;56.50;;;;;;6228659;28;20029;-67
2021/07/21 13:01:41;;;;;;;3.95;2.67;;;24.20;56.50;;;;;;6232923;28;20029;-67
2021/07/21 13:04:43;;;;;;;2.33;1.95;;;24.20;56.40;;;;;;6242263;28;20036;-67
2021/07/21 13:07:52;;;;;;;3.30;2.17;;;24.20;56.40;;;;;;6221386;28;20033;-67
2021/07/21 13:11:10;;;;;;;4.05;2.67;;;24.20;55.10;;;;;;6241090;28;20013;-67
2021/07/21 13:14:14;;;;;;;4.53;2.90;;;24.20;55.50;;;;;;6236143;28;20405;-70
2021/07/21 13:17:18;;;;;;;4.90;3.17;;;24.20;55.20;;;;;;6235673;28;20076;-69
2021/07/21 13:20:30;;;;;;;6.27;3.03;;;24.20;55.60;;;;;;6229876;28;20048;-69
2021/07/21 13:23:31;;;;;;;5.70;3.10;;;24.10;55.50;;;;;;6224778;28;20319;-70
2021/07/21 13:26:34;;;;;;;7.57;2.90;;;24.10;54.40;;;;;;6224323;28;20416;-69
2021/07/21 13:29:36;;;;;;;4.05;2.83;;;24.10;55.30;;;;;;6227584;28;20053;-70
2021/07/21 13:32:36;;;;;;;6.00;3.20;;;24.10;55.30;;;;;;6234597;28;20044;-70
2021/07/21 13:35:37;;;;;;;5.13;3.08;;;24.10;54.90;;;;;;6220825;28;20424;-70
2021/07/21 13:38:38;;;;;;;5.65;3.47;;;24.10;55.10;;;;;;6216183;28;20033;-70
2021/07/21 13:41:42;;;;;;;5.97;3.72;;;24.10;55.10;;;;;;6242207;28;20108;-70
2021/07/21 13:44:45;;;;;;;6.25;3.28;;;24.10;55.10;;;;;;6227572;28;20037;-70
2021/07/21 13:47:56;;;;;;;8.73;3.83;;;24.10;55.20;;;;;;6234486;28;20061;-70
2021/07/21 13:51:10;;;;;;;5.95;3.70;;;24.10;54.40;;;;;;6240193;28;20029;-70
2021/07/21 13:54:16;;;;;;;4.90;3.65;;;24.10;54.50;;;;;;6225629;28;20022;-70
2021/07/21 13:57:18;;;;;;;7.03;4.43;;;24.10;55.10;;;;;;6239769;28;20541;-70
2021/07/21 14:00:19;;;;;;;6.38;3.60;;;24.00;55.20;;;;;;6228428;28;20056;-70
2021/07/21 14:03:22;;;;;;;5.78;3.72;;;24.10;54.80;;;;;;6234588;28;20482;-70
2021/07/21 14:06:23;;;;;;;6.93;4.22;;;24.00;54.90;;;;;;6233831;28;20036;-70
2021/07/21 14:09:24;;;;;;;8.45;4.25;;;24.00;54.70;;;;;;6223682;28;20029;-69
2021/07/21 14:12:24;;;;;;;5.30;3.60;;;24.00;55.50;;;;;;6240618;28;20384;-69
2021/07/21 14:15:25;;;;;;;7.20;4.10;;;24.00;55.10;;;;;;6227205;28;20040;-70
2021/07/21 14:18:27;;;;;;;7.13;3.92;;;24.00;55.60;;;;;;6238142;28;20076;-70
2021/07/21 14:21:28;;;;;;;6.45;3.95;;;24.00;55.20;;;;;;6239420;28;20037;-70
2021/07/21 14:24:29;;;;;;;6.65;3.63;;;24.00;55.10;;;;;;6230445;28;20631;-70
2021/07/21 14:27:29;;;;;;;5.95;3.90;;;24.00;55.20;;;;;;6245267;28;20022;-70
2021/07/21 14:30:30;;;;;;;5.47;3.88;;;24.00;55.60;;;;;;6230134;28;20061;-70
2021/07/21 14:33:31;;;;;;;6.28;4.25;;;24.00;55.20;;;;;;6238670;28;20104;-70
2021/07/21 14:36:31;;;;;;;7.05;4.15;;;24.00;55.20;;;;;;6237022;28;20116;-70
2021/07/21 14:39:32;;;;;;;6.97;4.13;;;24.00;55.00;;;;;;6225178;28;20046;-70
2021/07/21 14:42:32;;;;;;;5.90;4.22;;;24.00;54.70;;;;;;6229681;28;20033;-70
2021/07/21 14:45:33;;;;;;;7.90;4.35;;;24.00;54.70;;;;;;6229885;28;20030;-70
2021/07/21 14:48:34;;;;;;;7.00;4.63;;;24.00;55.10;;;;;;6227905;28;20489;-70
2021/07/21 14:51:34;;;;;;;7.75;4.95;;;24.00;54.90;;;;;;6223251;28;20025;-70
2021/07/21 14:54:35;;;;;;;7.43;4.68;;;24.00;54.60;;;;;;6226774;28;20057;-69
2021/07/21 14:57:35;;;;;;;8.13;4.70;;;24.00;54.60;;;;;;6242864;28;20034;-69
2021/07/21 15:00:36;;;;;;;6.88;4.15;;;24.10;55.00;;;;;;6228939;28;20037;-70
2021/07/21 15:03:37;;;;;;;7.65;4.95;;;24.00;54.70;;;;;;6236674;28;20485;-69
2021/07/21 15:06:38;;;;;;;6.53;4.28;;;24.00;54.70;;;;;;6233352;28;20021;-70
2021/07/21 15:09:39;;;;;;;8.27;4.90;;;24.00;55.00;;;;;;6209650;28;20109;-70
2021/07/21 15:12:40;;;;;;;9.00;4.55;;;24.10;54.90;;;;;;6211960;28;20064;-70
2021/07/21 15:15:40;;;;;;;6.90;4.65;;;24.00;54.80;;;;;;6227310;28;20064;-70
2021/07/21 15:18:41;;;;;;;7.35;4.43;;;24.00;54.70;;;;;;6242562;28;20077;-70
2021/07/21 15:21:44;;;;;;;9.55;5.03;;;24.00;54.80;;;;;;6239094;28;20032;-70
2021/07/21 15:24:45;;;;;;;9.65;4.93;;;24.00;54.90;;;;;;6241931;28;20129;-70
2021/07/21 15:27:45;;;;;;;9.18;4.90;;;24.00;54.90;;;;;;6250739;28;20048;-70
2021/07/21 15:30:46;;;;;;;10.32;4.88;;;24.00;55.00;;;;;;6230217;28;20033;-70
2021/07/21 15:33:48;;;;;;;7.10;4.82;;;24.00;54.80;;;;;;6238380;28;20157;-70
2021/07/21 15:36:49;;;;;;;8.57;5.05;;;24.10;55.00;;;;;;6236806;28;20084;-69
2021/07/21 15:39:49;;;;;;;8.75;5.28;;;24.00;55.00;;;;;;6242215;28;20030;-69
2021/07/21 15:42:50;;;;;;;11.00;6.28;;;24.10;55.00;;;;;;6245602;28;20403;-69
2021/07/21 15:45:50;;;;;;;7.75;5.15;;;24.00;54.40;;;;;;6241853;28;20056;-69
2021/07/21 15:48:51;;;;;;;6.75;4.95;;;24.10;54.80;;;;;;6245872;28;20029;-69
2021/07/21 15:51:53;;;;;;;9.32;5.40;;;24.10;54.90;;;;;;6241476;28;20021;-69
2021/07/21 15:54:54;;;;;;;8.02;5.30;;;24.00;54.70;;;;;;6257816;28;20596;-69
2021/07/21 15:57:54;;;;;;;7.70;4.43;;;24.00;54.70;;;;;;6244013;28;20025;-69
2021/07/21 16:00:55;;;;;;;7.20;4.85;;;24.00;54.80;;;;;;6230106;28;20045;-69
2021/07/21 16:03:55;;;;;;;6.90;4.57;;;24.10;54.90;;;;;;6242668;28;20141;-69